sensor_id;sensor_type;location;lat;lon;timestamp;pressure;altitude;pressure_sealevel;temperature;humidity
5952;BME280;3001;42.622;23.194;2023-03-14T00:00:48;91410.81;;;3.81;68.59
5952;BME280;3001;42.622;23.194;2023-03-14T00:03:15;91415.97;;;3.71;68.70
5952;BME280;3001;42.622;23.194;2023-03-14T00:05:41;91409.03;;;3.66;66.41
5952;BME280;3001;42.622;23.194;2023-03-14T00:08:09;91406.22;;;3.68;69.51
5952;BME280;3001;42.622;23.194;2023-03-14T00:10:37;91392.81;;;3.66;68.53
5952;BME280;3001;42.622;23.194;2023-03-14T00:13:04;91391.28;;;3.65;70.19
5952;BME280;3001;42.622;23.194;2023-03-14T00:15:32;91386.66;;;3.52;66.73
5952;BME280;3001;42.622;23.194;2023-03-14T00:17:58;91383.56;;;3.40;70.76
5952;BME280;3001;42.622;23.194;2023-03-14T00:20:25;91381.78;;;3.45;67.58
5952;BME280;3001;42.622;23.194;2023-03-14T00:22:52;91377.91;;;3.33;68.76
5952;BME280;3001;42.622;23.194;2023-03-14T00:25:20;91370.72;;;3.30;70.04
5952;BME280;3001;42.622;23.194;2023-03-14T00:27:46;91373.03;;;3.32;70.00
5952;BME280;3001;42.622;23.194;2023-03-14T00:30:13;91368.44;;;3.38;70.31
5952;BME280;3001;42.622;23.194;2023-03-14T00:32:40;91366.09;;;3.42;69.85
5952;BME280;3001;42.622;23.194;2023-03-14T00:35:07;91366.66;;;3.49;67.07
5952;BME280;3001;42.622;23.194;2023-03-14T00:37:34;91360.97;;;3.42;68.95
5952;BME280;3001;42.622;23.194;2023-03-14T00:40:01;91356.63;;;3.47;68.95
5952;BME280;3001;42.622;23.194;2023-03-14T00:42:32;91359.41;;;3.26;68.18
5952;BME280;3001;42.622;23.194;2023-03-14T00:44:59;91360.97;;;3.32;68.41
5952;BME280;3001;42.622;23.194;2023-03-14T00:47:25;91359.69;;;3.20;70.12
5952;BME280;3001;42.622;23.194;2023-03-14T00:49:52;91358.41;;;3.32;70.10
5952;BME280;3001;42.622;23.194;2023-03-14T00:52:19;91358.41;;;3.42;67.58
5952;BME280;3001;42.622;23.194;2023-03-14T00:54:45;91361.97;;;3.26;67.27
5952;BME280;3001;42.622;23.194;2023-03-14T00:57:12;91363.50;;;3.22;66.92
5952;BME280;3001;42.622;23.194;2023-03-14T00:59:40;91353.28;;;3.27;66.20
5952;BME280;3001;42.622;23.194;2023-03-14T01:02:07;91351.22;;;3.29;66.70
5952;BME280;3001;42.622;23.194;2023-03-14T01:04:34;91339.66;;;3.22;68.91
5952;BME280;3001;42.622;23.194;2023-03-14T01:07:03;91343.25;;;3.21;69.58
5952;BME280;3001;42.622;23.194;2023-03-14T01:09:29;91337.34;;;3.20;71.70
5952;BME280;3001;42.622;23.194;2023-03-14T01:11:56;91336.56;;;3.30;69.63
5952;BME280;3001;42.622;23.194;2023-03-14T01:14:22;91333.75;;;3.36;69.66
5952;BME280;3001;42.622;23.194;2023-03-14T01:16:50;91334.78;;;3.35;69.01
5952;BME280;3001;42.622;23.194;2023-03-14T01:19:17;91329.66;;;3.35;70.31
5952;BME280;3001;42.622;23.194;2023-03-14T01:21:44;91327.09;;;3.40;71.72
5952;BME280;3001;42.622;23.194;2023-03-14T01:24:11;91328.88;;;3.30;70.45
5952;BME280;3001;42.622;23.194;2023-03-14T01:26:37;91315.00;;;3.11;71.00
5952;BME280;3001;42.622;23.194;2023-03-14T01:29:04;91313.97;;;3.12;71.44
5952;BME280;3001;42.622;23.194;2023-03-14T01:31:31;91315.53;;;3.18;72.43
5952;BME280;3001;42.622;23.194;2023-03-14T01:33:59;91313.22;;;3.21;72.43
5952;BME280;3001;42.622;23.194;2023-03-14T01:36:25;91307.84;;;3.18;72.18
5952;BME280;3001;42.622;23.194;2023-03-14T01:38:52;91298.53;;;2.92;70.44
5952;BME280;3001;42.622;23.194;2023-03-14T01:41:22;91305.50;;;3.06;70.34
5952;BME280;3001;42.622;23.194;2023-03-14T01:43:49;91308.09;;;3.16;70.54
5952;BME280;3001;42.622;23.194;2023-03-14T01:49:21;91303.97;;;3.25;70.71
5952;BME280;3001;42.622;23.194;2023-03-14T01:51:52;91296.53;;;3.19;72.43
5952;BME280;3001;42.622;23.194;2023-03-14T01:54:24;91290.88;;;3.07;71.64
5952;BME280;3001;42.622;23.194;2023-03-14T01:56:54;91292.69;;;3.11;73.93
5952;BME280;3001;42.622;23.194;2023-03-14T01:59:22;91291.38;;;3.09;73.84
5952;BME280;3001;42.622;23.194;2023-03-14T02:01:51;91289.84;;;3.13;73.47
5952;BME280;3001;42.622;23.194;2023-03-14T02:04:18;91285.78;;;3.17;74.98
5952;BME280;3001;42.622;23.194;2023-03-14T02:06:50;91287.56;;;3.11;73.56
5952;BME280;3001;42.622;23.194;2023-03-14T02:09:18;91290.38;;;3.15;73.60
5952;BME280;3001;42.622;23.194;2023-03-14T02:11:46;91278.56;;;3.24;72.88
5952;BME280;3001;42.622;23.194;2023-03-14T02:14:19;91277.81;;;3.18;72.56
5952;BME280;3001;42.622;23.194;2023-03-14T02:16:48;91280.63;;;3.22;71.70
5952;BME280;3001;42.622;23.194;2023-03-14T02:19:17;91277.28;;;3.26;71.17
5952;BME280;3001;42.622;23.194;2023-03-14T02:21:53;91274.97;;;3.30;70.69
5952;BME280;3001;42.622;23.194;2023-03-14T02:24:25;91273.44;;;3.24;70.88
5952;BME280;3001;42.622;23.194;2023-03-14T02:27:10;91263.44;;;3.12;72.40
5952;BME280;3001;42.622;23.194;2023-03-14T02:29:40;91272.13;;;3.06;71.36
5952;BME280;3001;42.622;23.194;2023-03-14T02:32:11;91271.88;;;2.93;71.73
5952;BME280;3001;42.622;23.194;2023-03-14T02:34:40;91282.41;;;2.96;73.22
5952;BME280;3001;42.622;23.194;2023-03-14T02:37:10;91283.44;;;2.95;72.35
5952;BME280;3001;42.622;23.194;2023-03-14T02:39:39;91281.63;;;2.76;73.55
5952;BME280;3001;42.622;23.194;2023-03-14T02:42:09;91281.63;;;2.76;75.40
5952;BME280;3001;42.622;23.194;2023-03-14T02:44:45;91293.94;;;2.94;75.86
5952;BME280;3001;42.622;23.194;2023-03-14T02:47:12;91292.66;;;2.96;76.01
5952;BME280;3001;42.622;23.194;2023-03-14T02:49:39;91290.88;;;3.07;73.02
5952;BME280;3001;42.622;23.194;2023-03-14T02:52:05;91289.56;;;2.84;72.65
5952;BME280;3001;42.622;23.194;2023-03-14T02:54:32;91293.66;;;2.80;75.60
5952;BME280;3001;42.622;23.194;2023-03-14T02:56:59;91295.19;;;2.76;76.48
5952;BME280;3001;42.622;23.194;2023-03-14T02:59:27;91301.84;;;2.67;76.46
5952;BME280;3001;42.622;23.194;2023-03-14T03:01:53;91291.59;;;2.72;78.12
5952;BME280;3001;42.622;23.194;2023-03-14T03:04:20;91286.47;;;2.77;78.29
5952;BME280;3001;42.622;23.194;2023-03-14T03:06:47;91297.75;;;2.66;77.28
5952;BME280;3001;42.622;23.194;2023-03-14T03:09:13;91290.53;;;2.63;75.36
5952;BME280;3001;42.622;23.194;2023-03-14T03:11:40;91281.84;;;2.74;75.07
5952;BME280;3001;42.622;23.194;2023-03-14T03:14:07;91286.72;;;2.71;75.18
5952;BME280;3001;42.622;23.194;2023-03-14T03:16:35;91280.31;;;2.73;75.03
5952;BME280;3001;42.622;23.194;2023-03-14T03:19:02;91284.69;;;2.93;74.49
5952;BME280;3001;42.622;23.194;2023-03-14T03:21:28;91278.28;;;2.85;76.56
5952;BME280;3001;42.622;23.194;2023-03-14T03:23:55;91275.50;;;3.17;76.13
5952;BME280;3001;42.622;23.194;2023-03-14T03:26:22;91275.75;;;3.25;75.22
5952;BME280;3001;42.622;23.194;2023-03-14T03:28:50;91287.31;;;3.23;74.48
5952;BME280;3001;42.622;23.194;2023-03-14T03:31:17;91280.38;;;3.18;75.07
5952;BME280;3001;42.622;23.194;2023-03-14T03:33:45;91278.56;;;3.29;77.01
5952;BME280;3001;42.622;23.194;2023-03-14T03:36:12;91274.19;;;3.44;76.57
5952;BME280;3001;42.622;23.194;2023-03-14T03:38:38;91284.47;;;3.49;74.50
5952;BME280;3001;42.622;23.194;2023-03-14T03:41:06;91289.09;;;3.47;75.47
5952;BME280;3001;42.622;23.194;2023-03-14T03:43:33;91280.13;;;3.39;74.87
5952;BME280;3001;42.622;23.194;2023-03-14T03:46:02;91287.81;;;3.20;75.03
5952;BME280;3001;42.622;23.194;2023-03-14T03:48:29;91298.84;;;3.15;75.26
5952;BME280;3001;42.622;23.194;2023-03-14T03:50:57;91292.44;;;3.23;74.06
5952;BME280;3001;42.622;23.194;2023-03-14T03:53:24;91283.19;;;3.02;74.39
5952;BME280;3001;42.622;23.194;2023-03-14T03:55:51;91288.28;;;2.92;76.05
5952;BME280;3001;42.622;23.194;2023-03-14T03:58:18;91285.47;;;2.88;76.22
5952;BME280;3001;42.622;23.194;2023-03-14T04:00:44;91284.41;;;2.79;77.37
5952;BME280;3001;42.622;23.194;2023-03-14T04:03:11;91273.91;;;2.86;77.72
5952;BME280;3001;42.622;23.194;2023-03-14T04:05:38;91282.13;;;2.88;75.44
5952;BME280;3001;42.622;23.194;2023-03-14T04:08:06;91291.38;;;2.94;76.39
5952;BME280;3001;42.622;23.194;2023-03-14T04:10:34;91284.19;;;2.96;77.20
5952;BME280;3001;42.622;23.194;2023-03-14T04:13:01;91285.47;;;2.98;77.91
5952;BME280;3001;42.622;23.194;2023-03-14T04:15:27;91274.19;;;3.04;78.22
5952;BME280;3001;42.622;23.194;2023-03-14T04:17:56;91273.69;;;3.02;76.00
5952;BME280;3001;42.622;23.194;2023-03-14T04:20:25;91269.34;;;3.03;75.94
5952;BME280;3001;42.622;23.194;2023-03-14T04:22:51;91267.53;;;2.88;74.93
5952;BME280;3001;42.622;23.194;2023-03-14T04:25:19;91260.81;;;2.77;76.33
5952;BME280;3001;42.622;23.194;2023-03-14T04:27:47;91260.81;;;2.67;75.37
5952;BME280;3001;42.622;23.194;2023-03-14T04:30:14;91257.72;;;2.65;75.71
5952;BME280;3001;42.622;23.194;2023-03-14T04:32:40;91249.78;;;2.62;76.51
5952;BME280;3001;42.622;23.194;2023-03-14T04:35:07;91251.84;;;2.65;76.92
5952;BME280;3001;42.622;23.194;2023-03-14T04:37:34;91249.78;;;2.62;76.77
5952;BME280;3001;42.622;23.194;2023-03-14T04:40:01;91245.91;;;2.64;77.18
5952;BME280;3001;42.622;23.194;2023-03-14T04:45:48;91239.53;;;2.57;77.97
5952;BME280;3001;42.622;23.194;2023-03-14T04:48:14;91236.44;;;2.60;77.29
5952;BME280;3001;42.622;23.194;2023-03-14T04:50:41;91232.59;;;2.57;77.26
5952;BME280;3001;42.622;23.194;2023-03-14T04:53:08;91234.38;;;2.47;76.90
5952;BME280;3001;42.622;23.194;2023-03-14T04:55:34;91223.88;;;2.58;76.78
5952;BME280;3001;42.622;23.194;2023-03-14T04:58:01;91216.94;;;2.49;77.27
5952;BME280;3001;42.622;23.194;2023-03-14T05:00:29;91213.88;;;2.57;76.91
5952;BME280;3001;42.622;23.194;2023-03-14T05:02:57;91219.50;;;2.49;76.74
5952;BME280;3001;42.622;23.194;2023-03-14T05:05:24;91223.84;;;2.38;77.12
5952;BME280;3001;42.622;23.194;2023-03-14T05:07:50;91215.88;;;2.35;78.25
5952;BME280;3001;42.622;23.194;2023-03-14T05:10:17;91219.75;;;2.52;78.62
5952;BME280;3001;42.622;23.194;2023-03-14T05:12:44;91222.59;;;2.66;77.59
5952;BME280;3001;42.622;23.194;2023-03-14T05:15:10;91223.63;;;2.75;78.36
5952;BME280;3001;42.622;23.194;2023-03-14T05:17:37;91222.88;;;2.69;78.49
5952;BME280;3001;42.622;23.194;2023-03-14T05:20:06;91218.75;;;2.53;79.71
5952;BME280;3001;42.622;23.194;2023-03-14T05:22:35;91211.56;;;2.60;78.70
5952;BME280;3001;42.622;23.194;2023-03-14T05:25:01;91210.31;;;2.78;79.08
5952;BME280;3001;42.622;23.194;2023-03-14T05:27:28;91215.69;;;2.71;80.31
5952;BME280;3001;42.622;23.194;2023-03-14T05:29:55;91219.56;;;2.84;79.91
5952;BME280;3001;42.622;23.194;2023-03-14T05:32:21;91221.59;;;2.92;80.29
5952;BME280;3001;42.622;23.194;2023-03-14T05:34:48;91219.28;;;2.95;80.52
5952;BME280;3001;42.622;23.194;2023-03-14T05:37:16;91222.88;;;3.14;79.57
5952;BME280;3001;42.622;23.194;2023-03-14T05:39:43;91224.94;;;3.12;79.37
5952;BME280;3001;42.622;23.194;2023-03-14T05:42:09;91223.66;;;3.25;77.97
5952;BME280;3001;42.622;23.194;2023-03-14T05:44:36;91222.63;;;3.26;76.52
5952;BME280;3001;42.622;23.194;2023-03-14T05:47:02;91217.75;;;3.29;76.66
5952;BME280;3001;42.622;23.194;2023-03-14T05:49:29;91224.66;;;3.29;77.61
5952;BME280;3001;42.622;23.194;2023-03-14T05:51:56;91220.31;;;3.34;77.68
5952;BME280;3001;42.622;23.194;2023-03-14T05:54:24;91223.88;;;3.38;78.68
5952;BME280;3001;42.622;23.194;2023-03-14T05:56:50;91222.34;;;3.42;79.43
5952;BME280;3001;42.622;23.194;2023-03-14T05:59:17;91216.44;;;3.41;79.32
5952;BME280;3001;42.622;23.194;2023-03-14T06:01:44;91225.44;;;3.49;77.20
5952;BME280;3001;42.622;23.194;2023-03-14T06:04:11;91219.25;;;3.55;77.80
5952;BME280;3001;42.622;23.194;2023-03-14T06:06:38;91221.78;;;3.65;76.35
5952;BME280;3001;42.622;23.194;2023-03-14T06:09:05;91222.81;;;3.74;76.01
5952;BME280;3001;42.622;23.194;2023-03-14T06:11:33;91221.78;;;3.75;75.14
5952;BME280;3001;42.622;23.194;2023-03-14T06:13:59;91216.66;;;3.65;77.28
5952;BME280;3001;42.622;23.194;2023-03-14T06:16:26;91215.91;;;3.59;78.20
5952;BME280;3001;42.622;23.194;2023-03-14T06:18:53;91222.59;;;3.60;76.90
5952;BME280;3001;42.622;23.194;2023-03-14T06:21:21;91218.22;;;3.56;77.07
5952;BME280;3001;42.622;23.194;2023-03-14T06:23:47;91223.84;;;3.68;75.84
5952;BME280;3001;42.622;23.194;2023-03-14T06:26:14;91231.81;;;3.56;76.68
5952;BME280;3001;42.622;23.194;2023-03-14T06:28:42;91225.91;;;3.71;76.08
5952;BME280;3001;42.622;23.194;2023-03-14T06:31:09;91233.09;;;3.69;75.45
5952;BME280;3001;42.622;23.194;2023-03-14T06:33:35;91231.31;;;3.64;74.99
5952;BME280;3001;42.622;23.194;2023-03-14T06:36:02;91223.06;;;3.72;75.91
5952;BME280;3001;42.622;23.194;2023-03-14T06:38:29;91229.47;;;3.80;77.99
5952;BME280;3001;42.622;23.194;2023-03-14T06:40:56;91227.13;;;3.88;77.25
5952;BME280;3001;42.622;23.194;2023-03-14T06:43:23;91216.34;;;3.86;78.55
5952;BME280;3001;42.622;23.194;2023-03-14T06:45:51;91212.16;;;4.05;77.89
5952;BME280;3001;42.622;23.194;2023-03-14T06:48:17;91216.78;;;4.08;76.89
5952;BME280;3001;42.622;23.194;2023-03-14T06:50:44;91206.25;;;4.10;74.82
5952;BME280;3001;42.622;23.194;2023-03-14T06:53:11;91203.88;;;4.23;74.56
5952;BME280;3001;42.622;23.194;2023-03-14T06:55:37;91193.06;;;4.26;73.86
5952;BME280;3001;42.622;23.194;2023-03-14T06:58:04;91200.97;;;4.40;73.45
5952;BME280;3001;42.622;23.194;2023-03-14T07:00:33;91198.44;;;4.25;74.36
5952;BME280;3001;42.622;23.194;2023-03-14T07:03:01;91193.28;;;4.35;75.32
5952;BME280;3001;42.622;23.194;2023-03-14T07:05:28;91193.50;;;4.43;75.75
5952;BME280;3001;42.622;23.194;2023-03-14T07:07:55;91194.28;;;4.39;75.70
5952;BME280;3001;42.622;23.194;2023-03-14T07:10:22;91189.38;;;4.42;74.01
5952;BME280;3001;42.622;23.194;2023-03-14T07:12:49;91196.97;;;4.62;75.03
5952;BME280;3001;42.622;23.194;2023-03-14T07:15:15;91197.53;;;4.93;71.12
5952;BME280;3001;42.622;23.194;2023-03-14T07:17:42;91203.19;;;4.90;71.74
5952;BME280;3001;42.622;23.194;2023-03-14T07:20:11;91205.47;;;4.96;71.45
5952;BME280;3001;42.622;23.194;2023-03-14T07:22:37;91207.69;;;5.12;69.42
5952;BME280;3001;42.622;23.194;2023-03-14T07:25:05;91199.38;;;5.20;69.13
5952;BME280;3001;42.622;23.194;2023-03-14T07:27:32;91198.97;;;5.37;69.38
5952;BME280;3001;42.622;23.194;2023-03-14T07:29:58;91195.84;;;5.40;69.52
5952;BME280;3001;42.622;23.194;2023-03-14T07:32:25;91186.63;;;5.62;68.83
5952;BME280;3001;42.622;23.194;2023-03-14T07:34:52;91180.66;;;5.67;67.55
5952;BME280;3001;42.622;23.194;2023-03-14T07:37:20;91176.41;;;5.81;69.50
5952;BME280;3001;42.622;23.194;2023-03-14T07:39:46;91183.28;;;5.90;68.69
5952;BME280;3001;42.622;23.194;2023-03-14T07:42:13;91174.72;;;5.95;69.33
5952;BME280;3001;42.622;23.194;2023-03-14T07:44:40;91180.94;;;6.12;66.72
5952;BME280;3001;42.622;23.194;2023-03-14T07:47:06;91186.72;;;6.28;67.51
5952;BME280;3001;42.622;23.194;2023-03-14T07:49:33;91181.41;;;6.38;67.35
5952;BME280;3001;42.622;23.194;2023-03-14T07:52:00;91173.97;;;6.55;67.51
5952;BME280;3001;42.622;23.194;2023-03-14T07:54:28;91183.69;;;6.81;67.47
5952;BME280;3001;42.622;23.194;2023-03-14T07:56:54;91184.50;;;6.95;67.75
5952;BME280;3001;42.622;23.194;2023-03-14T07:59:22;91181.78;;;7.05;67.11
5952;BME280;3001;42.622;23.194;2023-03-14T08:01:49;91178.88;;;7.25;65.97
5952;BME280;3001;42.622;23.194;2023-03-14T08:04:15;91181.13;;;7.45;65.90
5952;BME280;3001;42.622;23.194;2023-03-14T08:06:42;91179.63;;;7.57;65.38
5952;BME280;3001;42.622;23.194;2023-03-14T08:09:09;91183.19;;;7.75;65.49
5952;BME280;3001;42.622;23.194;2023-03-14T08:11:37;91177.66;;;7.95;65.63
5952;BME280;3001;42.622;23.194;2023-03-14T08:14:04;91180.34;;;8.17;64.81
5952;BME280;3001;42.622;23.194;2023-03-14T08:16:30;91179.22;;;8.36;64.04
5952;BME280;3001;42.622;23.194;2023-03-14T08:18:57;91168.56;;;8.51;62.27
5952;BME280;3001;42.622;23.194;2023-03-14T08:21:23;91169.75;;;8.67;62.85
5952;BME280;3001;42.622;23.194;2023-03-14T08:23:50;91175.16;;;8.92;63.90
5952;BME280;3001;42.622;23.194;2023-03-14T08:26:17;91181.63;;;9.17;59.81
5952;BME280;3001;42.622;23.194;2023-03-14T08:28:45;91177.16;;;9.31;57.85
5952;BME280;3001;42.622;23.194;2023-03-14T08:31:11;91176.31;;;9.44;59.22
5952;BME280;3001;42.622;23.194;2023-03-14T08:33:38;91170.63;;;9.64;59.58
5952;BME280;3001;42.622;23.194;2023-03-14T08:36:05;91169.44;;;9.70;58.98
5952;BME280;3001;42.622;23.194;2023-03-14T08:38:32;91171.38;;;9.86;59.37
5952;BME280;3001;42.622;23.194;2023-03-14T08:41:00;91164.56;;;9.99;58.91
5952;BME280;3001;42.622;23.194;2023-03-14T08:43:27;91167.59;;;10.31;56.09
5952;BME280;3001;42.622;23.194;2023-03-14T08:45:58;91167.34;;;10.49;56.89
5952;BME280;3001;42.622;23.194;2023-03-14T08:48:25;91158.41;;;10.72;56.75
5952;BME280;3001;42.622;23.194;2023-03-14T08:50:52;91161.47;;;11.00;55.02
5952;BME280;3001;42.622;23.194;2023-03-14T08:53:19;91166.22;;;11.23;53.93
5952;BME280;3001;42.622;23.194;2023-03-14T08:55:50;91167.72;;;11.41;49.73
5952;BME280;3001;42.622;23.194;2023-03-14T08:58:18;91148.28;;;11.47;51.93
5952;BME280;3001;42.622;23.194;2023-03-14T09:00:44;91149.97;;;11.77;51.12
5952;BME280;3001;42.622;23.194;2023-03-14T09:03:13;91145.25;;;12.08;51.94
5952;BME280;3001;42.622;23.194;2023-03-14T09:05:40;91124.94;;;12.30;49.36
5952;BME280;3001;42.622;23.194;2023-03-14T09:08:06;91133.91;;;12.41;47.94
5952;BME280;3001;42.622;23.194;2023-03-14T09:10:33;91121.38;;;12.64;49.44
5952;BME280;3001;42.622;23.194;2023-03-14T09:13:00;91121.38;;;12.84;49.93
5952;BME280;3001;42.622;23.194;2023-03-14T09:15:26;91113.75;;;13.08;49.06
5952;BME280;3001;42.622;23.194;2023-03-14T09:17:53;91110.88;;;13.22;46.76
5952;BME280;3001;42.622;23.194;2023-03-14T09:20:21;91109.16;;;13.26;47.21
5952;BME280;3001;42.622;23.194;2023-03-14T09:22:48;91100.75;;;13.41;46.75
5952;BME280;3001;42.622;23.194;2023-03-14T09:25:14;91098.72;;;13.58;44.02
5952;BME280;3001;42.622;23.194;2023-03-14T09:27:41;91099.63;;;13.74;44.42
5952;BME280;3001;42.622;23.194;2023-03-14T09:30:09;91097.94;;;13.90;43.61
5952;BME280;3001;42.622;23.194;2023-03-14T09:32:36;91091.50;;;14.11;43.27
5952;BME280;3001;42.622;23.194;2023-03-14T09:35:03;91091.22;;;14.25;42.97
5952;BME280;3001;42.622;23.194;2023-03-14T09:37:32;91088.72;;;14.52;41.47
5952;BME280;3001;42.622;23.194;2023-03-14T09:39:58;91089.22;;;14.70;42.73
5952;BME280;3001;42.622;23.194;2023-03-14T09:42:26;91082.22;;;14.86;40.90
5952;BME280;3001;42.622;23.194;2023-03-14T09:44:56;91084.69;;;15.06;41.06
5952;BME280;3001;42.622;23.194;2023-03-14T09:47:24;91083.41;;;15.28;40.68
5952;BME280;3001;42.622;23.194;2023-03-14T09:49:51;91075.56;;;15.40;40.04
5952;BME280;3001;42.622;23.194;2023-03-14T09:52:21;91076.53;;;15.63;38.70
5952;BME280;3001;42.622;23.194;2023-03-14T09:54:53;91070.56;;;15.77;38.18
5952;BME280;3001;42.622;23.194;2023-03-14T09:57:23;91057.31;;;15.86;40.67
5952;BME280;3001;42.622;23.194;2023-03-14T09:59:53;91070.31;;;15.98;37.42
5952;BME280;3001;42.622;23.194;2023-03-14T10:02:22;91061.63;;;16.09;37.40
5952;BME280;3001;42.622;23.194;2023-03-14T10:04:51;91058.25;;;16.24;37.13
5952;BME280;3001;42.622;23.194;2023-03-14T10:07:18;91049.44;;;16.32;38.11
5952;BME280;3001;42.622;23.194;2023-03-14T10:09:49;91049.69;;;16.43;36.52
5952;BME280;3001;42.622;23.194;2023-03-14T10:12:18;91040.38;;;16.61;33.87
5952;BME280;3001;42.622;23.194;2023-03-14T10:14:47;91043.84;;;16.65;35.54
5952;BME280;3001;42.622;23.194;2023-03-14T10:17:15;91040.47;;;16.64;35.26
5952;BME280;3001;42.622;23.194;2023-03-14T10:19:54;91040.13;;;16.85;36.05
5952;BME280;3001;42.622;23.194;2023-03-14T10:22:22;91031.88;;;17.02;35.09
5952;BME280;3001;42.622;23.194;2023-03-14T10:24:52;91021.13;;;17.07;35.12
5952;BME280;3001;42.622;23.194;2023-03-14T10:27:23;91018.34;;;17.19;33.67
5952;BME280;3001;42.622;23.194;2023-03-14T10:29:55;91005.00;;;17.27;34.76
5952;BME280;3001;42.622;23.194;2023-03-14T10:32:28;91006.94;;;17.49;35.47
5952;BME280;3001;42.622;23.194;2023-03-14T10:35:07;91003.53;;;17.67;33.18
5952;BME280;3001;42.622;23.194;2023-03-14T10:37:35;90986.00;;;17.75;32.55
5952;BME280;3001;42.622;23.194;2023-03-14T10:40:03;90990.59;;;17.78;30.89
5952;BME280;3001;42.622;23.194;2023-03-14T10:42:34;90979.69;;;17.79;32.01
5952;BME280;3001;42.622;23.194;2023-03-14T10:45:29;90975.72;;;17.89;30.97
5952;BME280;3001;42.622;23.194;2023-03-14T10:47:53;90973.81;;;17.86;30.96
5952;BME280;3001;42.622;23.194;2023-03-14T10:50:25;90964.56;;;17.95;32.71
5952;BME280;3001;42.622;23.194;2023-03-14T10:52:54;90960.19;;;18.03;32.90
5952;BME280;3001;42.622;23.194;2023-03-14T10:55:23;90964.13;;;18.16;33.16
5952;BME280;3001;42.622;23.194;2023-03-14T10:57:51;90955.59;;;18.22;32.66
5952;BME280;3001;42.622;23.194;2023-03-14T11:00:20;90953.34;;;18.21;33.07
5952;BME280;3001;42.622;23.194;2023-03-14T11:03:03;90945.84;;;18.23;33.02
5952;BME280;3001;42.622;23.194;2023-03-14T11:05:38;90945.66;;;18.35;32.18
5952;BME280;3001;42.622;23.194;2023-03-14T11:08:11;90940.84;;;18.40;32.83
5952;BME280;3001;42.622;23.194;2023-03-14T11:10:39;90938.59;;;18.39;32.31
5952;BME280;3001;42.622;23.194;2023-03-14T11:13:22;90941.25;;;18.42;31.47
5952;BME280;3001;42.622;23.194;2023-03-14T11:15:58;90926.00;;;18.51;31.95
5952;BME280;3001;42.622;23.194;2023-03-14T11:18:51;90927.59;;;18.59;32.56
5952;BME280;3001;42.622;23.194;2023-03-14T11:21:22;90924.81;;;18.78;31.55
5952;BME280;3001;42.622;23.194;2023-03-14T11:24:00;90903.09;;;18.85;31.90
5952;BME280;3001;42.622;23.194;2023-03-14T11:26:36;90903.16;;;18.92;31.89
5952;BME280;3001;42.622;23.194;2023-03-14T11:29:15;90902.13;;;19.00;30.36
5952;BME280;3001;42.622;23.194;2023-03-14T11:31:44;90895.97;;;19.18;30.79
5952;BME280;3001;42.622;23.194;2023-03-14T11:34:16;90889.63;;;19.23;27.33
5952;BME280;3001;42.622;23.194;2023-03-14T11:36:46;90894.94;;;19.29;25.89
5952;BME280;3001;42.622;23.194;2023-03-14T11:39:17;90887.81;;;19.30;24.89
5952;BME280;3001;42.622;23.194;2023-03-14T11:41:46;90893.03;;;18.94;25.75
5952;BME280;3001;42.622;23.194;2023-03-14T11:44:17;90883.88;;;18.81;25.12
5952;BME280;3001;42.622;23.194;2023-03-14T11:46:50;90880.03;;;18.75;26.33
5952;BME280;3001;42.622;23.194;2023-03-14T11:49:24;90870.09;;;18.61;25.37
5952;BME280;3001;42.622;23.194;2023-03-14T11:51:56;90864.25;;;18.45;26.18
5952;BME280;3001;42.622;23.194;2023-03-14T11:54:32;90868.03;;;18.18;25.20
5952;BME280;3001;42.622;23.194;2023-03-14T11:57:02;90862.59;;;18.30;27.45
5952;BME280;3001;42.622;23.194;2023-03-14T11:59:36;90855.97;;;18.43;25.53
5952;BME280;3001;42.622;23.194;2023-03-14T12:02:13;90852.41;;;18.58;27.30
5952;BME280;3001;42.622;23.194;2023-03-14T12:04:54;90847.78;;;18.48;26.08
5952;BME280;3001;42.622;23.194;2023-03-14T12:07:26;90845.16;;;18.48;26.92
5952;BME280;3001;42.622;23.194;2023-03-14T12:09:56;90842.72;;;18.66;25.75
5952;BME280;3001;42.622;23.194;2023-03-14T12:12:25;90826.69;;;18.78;25.96
5952;BME280;3001;42.622;23.194;2023-03-14T12:14:56;90829.78;;;18.87;25.79
5952;BME280;3001;42.622;23.194;2023-03-14T12:17:26;90823.47;;;18.95;26.14
5952;BME280;3001;42.622;23.194;2023-03-14T12:20:15;90821.97;;;18.94;26.43
5952;BME280;3001;42.622;23.194;2023-03-14T12:22:43;90821.94;;;18.90;24.78
5952;BME280;3001;42.622;23.194;2023-03-14T12:25:16;90814.34;;;18.85;25.85
5952;BME280;3001;42.622;23.194;2023-03-14T12:28:14;90813.47;;;18.71;26.00
5952;BME280;3001;42.622;23.194;2023-03-14T12:30:44;90813.00;;;18.62;25.30
5952;BME280;3001;42.622;23.194;2023-03-14T12:33:28;90807.41;;;18.67;25.85
5952;BME280;3001;42.622;23.194;2023-03-14T12:36:00;90799.91;;;18.69;26.40
5952;BME280;3001;42.622;23.194;2023-03-14T12:38:43;90798.09;;;18.76;26.72
5952;BME280;3001;42.622;23.194;2023-03-14T12:41:15;90790.75;;;18.92;25.71
5952;BME280;3001;42.622;23.194;2023-03-14T12:43:43;90789.00;;;19.07;25.66
5952;BME280;3001;42.622;23.194;2023-03-14T12:46:22;90781.34;;;19.31;26.92
5952;BME280;3001;42.622;23.194;2023-03-14T12:48:53;90762.94;;;19.38;25.91
5952;BME280;3001;42.622;23.194;2023-03-14T12:51:28;90766.13;;;19.61;24.62
5952;BME280;3001;42.622;23.194;2023-03-14T12:54:13;90766.91;;;19.68;24.55
5952;BME280;3001;42.622;23.194;2023-03-14T12:56:53;90763.59;;;19.82;24.21
5952;BME280;3001;42.622;23.194;2023-03-14T12:59:30;90763.19;;;19.76;22.96
5952;BME280;3001;42.622;23.194;2023-03-14T13:02:09;90757.97;;;19.87;24.35
5952;BME280;3001;42.622;23.194;2023-03-14T13:04:46;90749.38;;;19.97;24.85
5952;BME280;3001;42.622;23.194;2023-03-14T13:07:30;90753.22;;;20.10;25.35
5952;BME280;3001;42.622;23.194;2023-03-14T13:54:55;90655.22;;;19.19;25.06
5952;BME280;3001;42.622;23.194;2023-03-14T13:57:23;90663.84;;;19.20;23.47
5952;BME280;3001;42.622;23.194;2023-03-14T14:00:01;90660.75;;;19.07;24.14
5952;BME280;3001;42.622;23.194;2023-03-14T14:02:33;90652.81;;;19.00;23.44
5952;BME280;3001;42.622;23.194;2023-03-14T14:05:01;90654.31;;;19.01;23.88
5952;BME280;3001;42.622;23.194;2023-03-14T14:07:28;90654.19;;;18.84;23.73
5952;BME280;3001;42.622;23.194;2023-03-14T14:09:58;90645.59;;;18.94;24.55
5952;BME280;3001;42.622;23.194;2023-03-14T14:12:28;90642.28;;;19.00;24.77
5952;BME280;3001;42.622;23.194;2023-03-14T14:14:59;90640.72;;;18.92;24.11
5952;BME280;3001;42.622;23.194;2023-03-14T14:17:31;90626.91;;;19.06;24.16